Walesville, New York
Current Conditions -  °F | °C
As of 4:53 AM on Monday 26 Jan 2015 (Local Time) from KRME Reporting Station
Clear Clear  
Wind Chill: -14°   Ceiling: Unl
Heat Index: -1°   Visibility: 10mi
Dew Point: -8°   Wind: 7mph
Humidity: 72%   Direction: 90°E
Pressure: 30.08"   Gusts: NA
Location:  43.1203°N, 75.3249°W
Report Text: KRME 260953Z 09006KT 10SM CLR M18/M22 A3008 RMK AO2 SLP195 T11831222
Loading
Personal Weather Stations






























Interactive Weather Map New forecast layout! Learn more

10-Day Weather Forecast

Advertisements
Track Severe Weather on mobile